STAZIONE METEO DI BARCELLONA P.G. CENTRO
Dati campionati ogni minuto da Consolle Davis Vantage Pro 2
ed inviati alla rete mediante server Anemos WDS5 wview



Barcellona P.G. Centro more information Barcellona P.G. Centro


Golfo di Patti more information Golfo di Patti


Thunder radar more information blitzortung!


Rain radar  rain snow radar


altri nostri siti meteo:

Rischio IncendiRischio Incendi

Rete NOAA MADIS

Italia Meteo Network

PomeziameteoSito web di stazione meteo amica



Esiste un problema di comunicazione. Vai direttamente al : www.meteoalarm.eu e controllare il meteo-avvertimenti.

Report METAR

   
LICF - Messina, Italy
Distanza dalla stazione: NE 30 km
Dati ricevuti: 24-04-2024 18:55
DATI Obsoleti
Pioggia leggera, Molto nuvoloso  
Pioggia leggera, Molto nuvoloso  
   Vento: NE 3.7 km/h
Vento: NE 3.7 km/h
Temperatura: 11°C
P.to Rugiada: 10°C
Umidità: 94%
Barometro: 1009 hPa
Nuvole: Molto nuvoloso
Visibilità: 9 km
dettagli cloud: Molto nuvoloso 914.4 m
LICF 241655Z 04002KT 9000 -RA BKN030 11/10 Q1009 RMK OVC OVC200 QUK 1 QUL 0 VIS MAR 9 KM MON CIME INC NC VIS MIN 9000
LICR - Reggio Calabria, Italy
Distanza dalla stazione: SE 39 km
Dati ricevuti: 25-04-2024 05:20
Sereno  
Sereno  
   Vento: NNW 16.7 km/h
Vento: NNW 16.7 km/h
Temperatura: 12°C
P.to Rugiada: 7°C
Umidità: 72%
Barometro: 1009 hPa
Nuvole: Sereno
Visibilità: oltre 10 km
dettagli cloud: Sereno
LICR 250320Z AUTO 34009KT 9999 NCD 12/07 Q1009
LICC - Catania/Fontanar, Italy
Distanza dalla stazione: S 77 km
Dati ricevuti: 25-04-2024 05:20
Sereno  
Sereno  
   Vento: West 18.5 km/h
Vento: West 18.5 km/h
Temperatura: 8°C
Temperatura Vento: 5°C
P.to Rugiada: 6°C
Umidità: 87%
Barometro: 1009 hPa
Visibilità: oltre 10 km
dettagli cloud: Sereno
LICC 250320Z 27010KT CAVOK 08/06 Q1009
LICZ - Sigonella (nas), Italy
Distanza dalla stazione: S 89 km
Dati ricevuti: 25-04-2024 04:55
Sereno  
Sereno  
   Vento: West 22.2 km/h
Vento: West 22.2 km/h
Temperatura: 9°C
Temperatura Vento: 6°C
P.to Rugiada: 9°C
Umidità: 100%
Barometro: 1010 hPa
Visibilità: oltre 10 km
dettagli cloud: Sereno
LICZ 250255Z 26012KT CAVOK 09/09 Q1010
LICA - Lamezia Terme, Italy
Distanza dalla stazione: NE 122 km
Dati ricevuti: 25-04-2024 05:20
Poche nuvole  
Poche nuvole  
   Vento: S 3.7 km/h
Vento: S 3.7 km/h
Temperatura: 8°C
P.to Rugiada: 7°C
Umidità: 93%
Barometro: 1008 hPa
Nuvole: Poche nuvole
Visibilità: oltre 10 km
dettagli cloud: Poche nuvole 1249.7 m
LICA 250320Z AUTO 15002KT 9999 FEW041/// 08/07 Q1008
LICB - Comiso, Italy
Distanza dalla stazione: S 138 km
Dati ricevuti: 25-04-2024 05:20
Poche nuvole  
Poche nuvole  
   Vento: Oriente 5.6 km/h
Vento: Oriente 5.6 km/h
Temperatura: 3°C
Temperatura Vento: 2°C
P.to Rugiada: 3°C
Umidità: 100%
Barometro: 1011 hPa
Nuvole: Poche nuvole
Visibilità: oltre 10 km
dettagli cloud: Poche nuvole 1524 m
LICB 250320Z AUTO 09003KT 9999 FEW050/// 03/03 Q1011

Script sviluppato da  Saratoga-weather.org Adattato per il modello da  Weerstation Leuven

Potete trovare le nostre info meteo anche a:

European Weather Network

Weather Underground

AWEKAS

Citizen Weather Observer Program (CWOP)

HAMweather, WeatherForYou, PWS Weather

Attrezzature usate:

Stazione meteo
Davis VP2

Programma gestore dati meteo
WVIEW

Server per i dati meteo
WDS5 Ecoblack

Davis VP2

WVIEW

WDS5 Ecoblack